createdAt,value
2019-03-12T00:00:36.462Z,101044.99
2019-03-12T00:05:41.811Z,101041.76
2019-03-12T00:10:47.025Z,101042.87
2019-03-12T00:15:52.181Z,101052.89
2019-03-12T00:20:57.273Z,101052.85
2019-03-12T00:26:02.417Z,101062.11
2019-03-12T00:31:07.444Z,101062.25
2019-03-12T00:36:12.590Z,101071.12
2019-03-12T00:41:20.097Z,101077.48
2019-03-12T00:46:27.085Z,101090.19
2019-03-12T00:51:31.676Z,101085.68
2019-03-12T00:56:36.786Z,101096.41
2019-03-12T01:01:41.940Z,101110.59
2019-03-12T01:06:47.037Z,101110.59
2019-03-12T01:11:52.174Z,101116.42
2019-03-12T01:16:57.210Z,101116.38
2019-03-12T01:22:02.335Z,101125.69
2019-03-12T01:27:07.477Z,101136.39
2019-03-12T01:32:12.589Z,101145.08
2019-03-12T01:37:17.713Z,101145.39
2019-03-12T01:42:25.953Z,101160.77
2019-03-12T01:47:31.154Z,101159.09
2019-03-12T01:52:36.403Z,101157.20
2019-03-12T01:57:41.625Z,101152.15
2019-03-12T02:02:46.883Z,101164.02
2019-03-12T02:07:51.916Z,101175.66
2019-03-12T02:12:56.961Z,101178.76
2019-03-12T02:18:02.048Z,101183.44
2019-03-12T02:23:07.237Z,101187.50
2019-03-12T02:28:12.386Z,101193.44
2019-03-12T02:33:17.651Z,101203.75
2019-03-12T02:38:22.753Z,101204.52
2019-03-12T02:43:28.122Z,101208.98
2019-03-12T02:48:33.162Z,101207.88
2019-03-12T02:53:38.316Z,101226.32
2019-03-12T02:58:43.354Z,101234.58
2019-03-12T03:03:48.392Z,101238.27
2019-03-12T03:08:53.501Z,101256.56
2019-03-12T03:13:59.739Z,101245.84
2019-03-12T03:19:06.084Z,101253.91
2019-03-12T03:24:11.248Z,101261.40
2019-03-12T03:29:16.281Z,101259.28
2019-03-12T03:34:27.223Z,101274.49
2019-03-12T03:39:28.287Z,101273.41
2019-03-12T03:44:33.725Z,101269.30
2019-03-12T03:49:39.223Z,101283.01
2019-03-12T03:54:44.300Z,101289.17
2019-03-12T03:59:49.510Z,101293.64
2019-03-12T04:04:54.557Z,101284.05
2019-03-12T04:09:59.684Z,101304.06
2019-03-12T04:15:06.562Z,101299.68
2019-03-12T04:20:16.994Z,101305.75
2019-03-12T04:25:22.298Z,101309.95
2019-03-12T04:30:27.553Z,101301.33
2019-03-12T04:35:35.604Z,101305.72
2019-03-12T04:40:40.638Z,101307.27
2019-03-12T04:45:45.954Z,101305.52
2019-03-12T04:50:51.162Z,101311.92
2019-03-12T04:55:56.301Z,101328.33
2019-03-12T05:01:01.544Z,101320.34
2019-03-12T05:06:06.659Z,101315.33
2019-03-12T05:11:11.909Z,101339.69
2019-03-12T05:16:17.008Z,101337.78
2019-03-12T05:21:22.057Z,101348.36
2019-03-12T05:26:27.107Z,101354.95
2019-03-12T05:31:32.190Z,101359.61
2019-03-12T05:36:37.281Z,101362.66
2019-03-12T05:41:42.349Z,101368.13
2019-03-12T05:46:47.892Z,101378.56
2019-03-12T05:51:53.108Z,101377.19
2019-03-12T05:56:58.284Z,101378.20
2019-03-12T06:02:03.612Z,101383.19
2019-03-12T06:07:08.786Z,101388.08
2019-03-12T06:12:13.970Z,101403.42
2019-03-12T06:17:18.998Z,101399.98
2019-03-12T06:22:24.051Z,101408.73
2019-03-12T06:27:29.216Z,101407.38
2019-03-12T06:32:35.891Z,101410.08
2019-03-12T06:37:45.329Z,101409.07
2019-03-12T06:42:57.799Z,101411.62
2019-03-12T06:48:10.824Z,101410.74
2019-03-12T06:53:23.351Z,101419.84
2019-03-12T06:58:31.233Z,101423.05
2019-03-12T07:03:56.198Z,101420.30
2019-03-12T07:09:05.986Z,101427.06
2019-03-12T07:14:22.553Z,101439.96
2019-03-12T07:19:40.099Z,101438.25
2019-03-12T07:25:01.816Z,101448.52
2019-03-12T07:30:17.422Z,101453.80
2019-03-12T07:35:29.810Z,101460.69
2019-03-12T07:40:42.703Z,101464.81
2019-03-12T07:46:07.854Z,101456.34
2019-03-12T07:51:31.249Z,101456.66
2019-03-12T07:56:38.067Z,101465.62
2019-03-12T08:01:44.852Z,101473.44
2019-03-12T08:06:54.320Z,101469.02
2019-03-12T08:12:01.183Z,101465.87
2019-03-12T08:17:09.142Z,101464.88
2019-03-12T08:22:22.267Z,101458.23
2019-03-12T08:27:31.583Z,101466.45
2019-03-12T08:32:50.639Z,101459.43
2019-03-12T08:37:57.385Z,101455.06
2019-03-12T08:43:13.076Z,101454.72
2019-03-12T08:48:31.571Z,101451.37
2019-03-12T08:53:41.545Z,101470.41
2019-03-12T08:59:06.035Z,101489.83
2019-03-12T09:04:12.804Z,101493.00
2019-03-12T09:09:37.574Z,101485.44
2019-03-12T09:14:47.016Z,101485.70
2019-03-12T09:20:05.466Z,101470.64
2019-03-12T09:25:12.387Z,101473.87
2019-03-12T09:30:39.698Z,101474.93
2019-03-12T09:36:03.979Z,101472.27
2019-03-12T09:41:10.731Z,101471.11
2019-03-12T09:46:20.213Z,101471.34
2019-03-12T09:51:33.045Z,101467.80
2019-03-12T09:56:48.819Z,101471.23
2019-03-12T10:01:59.496Z,101473.63
2019-03-12T10:07:12.681Z,101469.79
2019-03-12T10:12:22.265Z,101471.94
2019-03-12T10:17:37.966Z,101463.78
2019-03-12T10:22:44.763Z,101466.37
2019-03-12T10:27:51.638Z,101468.58
2019-03-12T10:33:16.680Z,101462.89
2019-03-12T10:38:59.630Z,101466.44
2019-03-12T10:44:06.895Z,101459.27
2019-03-12T10:49:12.020Z,101455.31
2019-03-12T10:54:17.106Z,101443.76
2019-03-12T10:59:22.785Z,101451.45
2019-03-12T11:04:27.912Z,101452.50
2019-03-12T11:09:33.201Z,101442.98
2019-03-12T11:14:38.977Z,101438.58
2019-03-12T11:19:44.231Z,101451.31
2019-03-12T11:24:49.253Z,101440.70
2019-03-12T11:29:54.327Z,101454.99
2019-03-12T11:34:59.458Z,101450.53
2019-03-12T11:40:07.880Z,101433.00
2019-03-12T11:45:16.783Z,101437.30
2019-03-12T11:50:23.119Z,101427.91
2019-03-12T11:55:28.516Z,101438.57
2019-03-12T12:00:35.794Z,101454.97
2019-03-12T12:05:40.993Z,101457.00
2019-03-12T12:10:46.285Z,101444.31
2019-03-12T12:15:51.410Z,101435.02
2019-03-12T12:20:56.535Z,101432.75
2019-03-12T12:26:01.591Z,101428.70
2019-03-12T12:31:06.689Z,101429.33
2019-03-12T12:36:11.810Z,101428.56
2019-03-12T12:41:16.833Z,101409.25
2019-03-12T12:46:21.972Z,101394.61
2019-03-12T12:51:27.101Z,101386.42
2019-03-12T12:56:32.285Z,101370.49
2019-03-12T13:01:37.593Z,101356.55
2019-03-12T13:06:42.641Z,101344.09
2019-03-12T13:11:47.713Z,101335.11
2019-03-12T13:16:52.906Z,101332.23
2019-03-12T13:21:57.955Z,101327.94
2019-03-12T13:27:03.118Z,101319.48
2019-03-12T13:32:13.553Z,101317.33
2019-03-12T13:37:15.148Z,101312.45
2019-03-12T13:42:20.693Z,101299.62
2019-03-12T13:47:28.636Z,101289.77
2019-03-12T13:52:32.933Z,101280.34
2019-03-12T13:57:38.102Z,101279.20
2019-03-12T14:02:43.593Z,101260.23
2019-03-12T14:07:49.410Z,101248.41
2019-03-12T14:12:55.736Z,101249.90
2019-03-12T14:18:01.150Z,101243.87
2019-03-12T14:23:06.760Z,101235.17
2019-03-12T14:28:11.942Z,101215.82
2019-03-12T14:33:17.091Z,101214.23
2019-03-12T14:38:22.255Z,101205.55
2019-03-12T14:43:27.567Z,101204.02
2019-03-12T14:48:44.380Z,101208.98
2019-03-12T14:53:55.013Z,101205.32
2019-03-12T14:59:00.465Z,101205.27
2019-03-12T15:04:06.149Z,101195.11
2019-03-12T15:09:14.397Z,101179.89
2019-03-12T15:14:21.219Z,101189.39
2019-03-12T15:19:26.351Z,101171.79
2019-03-12T15:24:31.483Z,101161.97
2019-03-12T15:29:37.824Z,101169.98
2019-03-12T15:34:43.017Z,101169.47
2019-03-12T15:39:48.209Z,101177.63
2019-03-12T15:44:53.321Z,101173.19
2019-03-12T15:49:58.551Z,101173.12
2019-03-12T15:55:05.043Z,101176.36
2019-03-12T16:00:12.917Z,101175.14
2019-03-12T16:05:18.416Z,101169.11
2019-03-12T16:10:23.729Z,101166.44
2019-03-12T16:15:29.795Z,101160.79
2019-03-12T16:20:34.951Z,101162.26
2019-03-12T16:25:40.125Z,101157.47
2019-03-12T16:30:45.187Z,101157.98
2019-03-12T16:35:50.368Z,101162.36
2019-03-12T16:40:55.497Z,101151.77
2019-03-12T16:46:00.652Z,101141.12
2019-03-12T16:51:05.827Z,101140.92
2019-03-12T16:56:11.290Z,101135.89
2019-03-12T17:01:16.518Z,101130.45
2019-03-12T17:06:22.006Z,101129.55
2019-03-12T17:11:27.055Z,101129.77
2019-03-12T17:16:32.355Z,101120.67
2019-03-12T17:21:37.403Z,101122.73
2019-03-12T17:26:42.869Z,101122.73
2019-03-12T17:31:47.936Z,101107.64
2019-03-12T17:36:53.167Z,101114.36
2019-03-12T17:42:00.459Z,101107.22
2019-03-12T17:47:05.833Z,101120.00
2019-03-12T17:52:11.993Z,101109.02
2019-03-12T17:57:17.119Z,101100.38
2019-03-12T18:02:22.483Z,101099.59
2019-03-12T18:07:29.460Z,101089.66
2019-03-12T18:12:34.671Z,101084.24
2019-03-12T18:17:39.970Z,101080.12
2019-03-12T18:22:45.157Z,101064.37
2019-03-12T18:27:50.490Z,101075.08
2019-03-12T18:32:55.684Z,101071.83
2019-03-12T18:38:00.803Z,101064.02
2019-03-12T18:43:06.216Z,101063.83
2019-03-12T18:48:11.415Z,101058.45
2019-03-12T18:53:16.658Z,101049.95
2019-03-12T18:58:21.926Z,101058.64
2019-03-12T19:03:27.042Z,101043.66
2019-03-12T19:08:32.648Z,101038.66
2019-03-12T19:13:39.064Z,101038.95
2019-03-12T19:18:44.330Z,101034.55
2019-03-12T19:23:49.510Z,101038.86
2019-03-12T19:28:54.667Z,101034.48
2019-03-12T19:34:01.368Z,101019.44
2019-03-12T19:39:07.993Z,101016.60
2019-03-12T19:44:14.752Z,101009.02
2019-03-12T19:49:20.327Z,100996.31
2019-03-12T19:54:25.721Z,100987.87
2019-03-12T19:59:30.945Z,100979.09
2019-03-12T20:04:46.806Z,100974.72
2019-03-12T20:09:45.749Z,100958.02
2019-03-12T20:15:21.372Z,100957.56
2019-03-12T20:20:55.479Z,100937.12
2019-03-12T20:26:22.843Z,100948.30
2019-03-12T20:31:45.841Z,100937.24
2019-03-12T20:37:03.144Z,100918.87
2019-03-12T20:42:37.932Z,100910.14
2019-03-12T20:48:07.222Z,100903.39
2019-03-12T20:53:24.172Z,100887.98
2019-03-12T20:58:44.711Z,100884.25
2019-03-12T21:04:15.830Z,100873.69
2019-03-12T21:09:41.844Z,100865.94
2019-03-12T21:15:15.999Z,100860.87
2019-03-12T21:20:47.835Z,100842.90
2019-03-12T21:26:17.159Z,100832.75
2019-03-12T21:31:22.648Z,100825.71
2019-03-12T21:36:30.906Z,100810.53
2019-03-12T21:41:34.824Z,100797.51
2019-03-12T21:46:40.040Z,100797.88
2019-03-12T21:51:45.243Z,100787.84
2019-03-12T21:56:50.409Z,100779.06
2019-03-12T22:01:55.588Z,100760.50
2019-03-12T22:07:01.093Z,100742.23
2019-03-12T22:12:06.337Z,100738.70
2019-03-12T22:17:11.979Z,100729.75
2019-03-12T22:22:29.349Z,100727.23
2019-03-12T22:27:34.576Z,100714.84
2019-03-12T22:32:39.685Z,100698.52
2019-03-12T22:37:44.933Z,100696.42
2019-03-12T22:42:50.084Z,100671.98
2019-03-12T22:47:55.431Z,100660.80
2019-03-12T22:53:00.485Z,100656.67
2019-03-12T22:58:05.935Z,100634.73
2019-03-12T23:03:29.291Z,100620.59
2019-03-12T23:08:52.289Z,100615.27
2019-03-12T23:13:59.376Z,100608.45
2019-03-12T23:19:05.808Z,100602.41
2019-03-12T23:24:11.182Z,100576.61
2019-03-12T23:29:16.709Z,100567.03
2019-03-12T23:34:22.414Z,100549.52
2019-03-12T23:39:27.630Z,100549.52
2019-03-12T23:44:32.839Z,100548.80
2019-03-12T23:49:38.267Z,100527.05
2019-03-12T23:54:43.706Z,100524.14
2019-03-12T23:59:48.848Z,100501.63
